Time;durP1;ratioP1;P1;durP2;ratioP2;P2;SDS_P1;SDS_P2;PMS_P1;PMS_P2;Temp;Humidity;BMP_temperature;BMP_pressure;BME280_temperature;BME280_humidity;BME280_pressure;Samples;Min_cycle;Max_cycle;Signal;HPM_P1;HPM_P2
2022/07/28 00:02:14;;;;;;;;;;;;;;;14.10;100.00;107404.59;5073847;28;20265;-79
2022/07/28 00:04:41;;;;;;;;;;;;;;;14.04;100.00;102983.81;5073308;28;19916;-77
2022/07/28 00:07:06;;;;;;;;;;;;;;;13.99;100.00;97893.06;5072616;28;19939;-78
2022/07/28 00:09:31;;;;;;;;;;;;;;;13.95;100.00;94163.25;5072808;28;20369;-77
2022/07/28 00:11:57;;;;;;;;;;;;;;;13.91;100.00;90774.50;5072344;28;19924;-77
2022/07/28 00:14:24;;;;;;;;;;;;;;;13.91;100.00;87059.22;5072835;28;19920;-78
2022/07/28 00:16:49;;;;;;;;;;;;;;;13.87;100.00;83677.91;5073923;28;19924;-77
2022/07/28 00:19:15;;;;;;;;;;;;;;;13.82;100.00;79962.09;5072120;28;19916;-78
2022/07/28 00:21:40;;;;;;;;;;;;;;;13.82;100.00;76930.00;5072418;28;19955;-78
2022/07/28 00:24:09;;;;;;;;;;;;;;;13.77;100.00;72883.50;5072479;28;19923;-78
2022/07/28 00:26:34;;;;;;;;;;;;;;;13.74;100.00;69517.06;5072691;28;19924;-80
2022/07/28 00:28:59;;;;;;;;;;;;;;;13.71;100.00;67833.19;5072517;28;20399;-80
2022/07/28 00:31:24;;;;;;;;;;;;;;;13.63;100.00;65473.84;5072942;28;19983;-80
2022/07/28 00:33:50;;;;;;;;;;;;;;;13.62;100.00;62451.91;5074389;28;19974;-81
2022/07/28 00:36:15;;;;;;;;;;;;;;;13.58;100.00;60771.09;5073655;28;19979;-81
2022/07/28 00:38:40;;;;;;;;;;;;;;;13.53;100.00;58753.91;5073884;28;20016;-81
2022/07/28 00:41:12;;;;;;;;;;;;;;;13.48;100.00;56069.44;5073954;28;19927;-82
2022/07/28 00:43:39;;;;;;;;;;;;;;;13.52;100.00;53395.19;5073328;28;19921;-82
2022/07/28 00:46:05;;;;;;;;;;;;;;;13.43;100.00;52048.59;5073422;28;19967;-81
2022/07/28 00:48:30;;;;;;;;;;;;;;;13.43;100.00;50377.09;5073390;28;19912;-81
2022/07/28 00:50:56;;;;;;;;;;;;;;;13.43;100.00;49374.22;5071189;28;19974;-79
2022/07/28 00:53:25;;;;;;;;;;;;;;;13.40;100.00;48703.03;5071325;28;19916;-78
2022/07/28 00:55:50;;;;;;;;;;;;;;;13.35;100.00;47361.66;5072610;28;20011;-79
2022/07/28 00:58:16;;;;;;;;;;;;;;;13.37;100.00;46695.41;5072129;28;19923;-78
2022/07/28 01:00:41;;;;;;;;;;;;;;;13.32;100.00;46357.03;5072517;28;19919;-78
2022/07/28 01:03:13;;;;;;;;;;;;;;;13.33;100.00;46357.91;5072097;28;19916;-78
2022/07/28 01:05:57;;;;;;;;;;;;;;;13.29;100.00;45019.41;5077410;28;19960;-78
2022/07/28 01:08:26;;;;;;;;;;;;;;;13.27;100.00;43682.75;5078464;28;19928;-79
2022/07/28 01:11:00;;;;;;;;;;;;;;;13.27;100.00;42015.13;5080947;28;19916;-79
2022/07/28 01:13:45;;;;;;;;;;;;;;;13.27;100.00;41681.22;5073470;28;19944;-80
2022/07/28 01:16:11;;;;;;;;;;;;;;;13.23;100.00;40678.06;5080033;28;19923;-79
2022/07/28 01:18:55;;;;;;;;;;;;;;;13.25;100.00;40679.63;5076567;28;20004;-78
2022/07/28 01:21:24;;;;;;;;;;;;;;;13.22;100.00;39343.91;5076996;28;19921;-79
2022/07/28 01:23:52;;;;;;;;;;;;;;;13.19;100.00;38675.13;5071753;28;19943;-79
2022/07/28 01:26:22;;;;;;;;;;;;;;;13.20;100.00;37342.88;5070883;28;19922;-79
2022/07/28 01:29:06;;;;;;;;;;;;;;;13.18;100.00;37341.44;5071636;28;20319;-78
2022/07/28 01:31:36;;;;;;;;;;;;;;;13.17;100.00;36674.94;5071284;28;20355;-78
2022/07/28 01:34:09;;;;;;;;;;;;;;;13.18;100.00;36009.66;5075333;28;19917;-78
2022/07/28 01:36:41;;;;;;;;;;;;;;;13.20;100.00;35678.09;5076595;28;19924;-79
2022/07/28 01:39:06;;;;;;;;;;;;;;;13.16;100.00;35009.47;5075625;28;19917;-79
2022/07/28 01:41:33;;;;;;;;;;;;;;;13.17;100.00;36008.59;5076295;28;19963;-79
2022/07/28 01:44:05;;;;;;;;;;;;;;;13.19;100.00;35011.53;5075332;28;19917;-79
2022/07/28 01:46:31;;;;;;;;;;;;;;;13.21;100.00;34346.81;5076553;28;19923;-78
2022/07/28 01:48:57;;;;;;;;;;;;;;;13.22;100.00;33349.41;5075540;28;19917;-78
2022/07/28 01:51:23;;;;;;;;;;;;;;;13.23;100.00;34348.19;5076929;28;20431;-77
2022/07/28 01:53:52;;;;;;;;;;;;;;;13.16;100.00;34010.94;5075411;28;20361;-77
2022/07/28 01:56:19;;;;;;;;;;;;;;;13.16;100.00;33345.41;5075189;28;19920;-78
2022/07/28 01:58:46;;;;;;;;;;;;;;;13.14;100.00;34342.38;5076615;28;20253;-78
2022/07/28 02:01:12;;;;;;;;;;;;;;;13.10;100.00;34339.97;5074859;28;19970;-78
2022/07/28 02:03:38;;;;;;;;;;;;;;;13.08;100.00;35004.25;5075122;28;19934;-79
2022/07/28 02:06:04;;;;;;;;;;;;;;;13.10;100.00;34672.78;5108585;28;20019;-77
2022/07/28 02:08:31;;;;;;;;;;;;;;;13.08;100.00;34005.50;5075102;28;19923;-79
2022/07/28 02:13:43;;;;;;;;;;;;;;;13.01;100.00;33335.69;5076027;28;19955;-78
2022/07/28 02:16:10;;;;;;;;;;;;;;;13.03;100.00;31674.03;5075038;28;20376;-78
2022/07/28 02:18:37;;;;;;;;;;;;;;;13.04;100.00;30012.34;5075317;28;19948;-78
2022/07/28 02:21:03;;;;;;;;;;;;;;;12.96;100.00;29675.09;5074248;28;20015;-78
2022/07/28 02:23:28;;;;;;;;;;;;;;;12.96;100.00;28013.81;5075235;28;20376;-78
2022/07/28 02:25:54;;;;;;;;;;;;;;;12.98;100.00;25690.06;5075018;28;19917;-77
2022/07/28 02:28:20;;;;;;;;;;;;;;;12.95;100.00;23697.31;5074897;28;19917;-78
2022/07/28 02:30:49;;;;;;;;;;;;;;;12.92;100.00;23032.50;5074839;28;19921;-78
2022/07/28 02:33:16;;;;;;;;;;;;;;;12.95;100.00;22701.78;5075701;28;19973;-78
2022/07/28 02:35:48;;;;;;;;;;;;;;;12.95;100.00;23365.53;5074938;28;19931;-78
2022/07/28 02:38:17;;;;;;;;;;;;;;;12.92;100.00;23364.25;5074850;28;20436;-77
2022/07/28 02:40:43;;;;;;;;;;;;;;;12.88;100.00;22698.81;5075095;28;19951;-78
2022/07/28 02:43:15;;;;;;;;;;;;;;;12.90;100.00;21704.59;5074745;28;20369;-79
2022/07/28 02:45:41;;;;;;;;;;;;;;;12.86;100.00;20708.03;5072530;28;19916;-80
2022/07/28 02:48:10;;;;;;;;;;;;;;;12.84;100.00;19050.19;5074818;28;19917;-81
2022/07/28 02:50:35;;;;;;;;;;;;;;;12.83;100.00;17393.34;5075879;28;19927;-81
2022/07/28 02:53:06;;;;;;;;;;;;;;;12.82;100.00;15406.03;5076017;28;19987;-80
2022/07/28 02:55:32;;;;;;;;;;;;;;;12.82;100.00;13751.22;5074581;28;19985;-82
2022/07/28 02:57:59;;;;;;;;;;;;;;;12.80;100.00;12427.22;5073719;28;20581;-82
2022/07/28 03:00:25;;;;;;;;;;;;;;;12.74;100.00;11433.34;5073316;28;19923;-81
2022/07/28 03:02:53;;;;;;;;;;;;;;;12.69;100.00;10109.50;5072644;28;19916;-81
2022/07/28 03:05:19;;;;;;;;;;;;;;;12.68;100.00;9117.81;5074540;28;19916;-81
2022/07/28 03:07:45;;;;;;;;;;;;;;;12.66;100.00;8126.28;5074982;28;19958;-81
2022/07/28 03:10:21;;;;;;;;;;;;;;;12.65;100.00;7465.44;5074027;28;20357;-81
2022/07/28 03:12:47;;;;;;;;;;;;;;;12.65;100.00;5814.34;5074904;28;19916;-80
2022/07/28 03:15:13;;;;;;;;;;;;;;;12.63;100.00;2184.31;5072135;28;19919;-81
2022/07/28 03:17:38;;;;;;;;;;;;;;;12.60;100.00;-123.94;5055487;28;20296;-79
2022/07/28 03:20:04;;;;;;;;;;;;;;;12.58;100.00;-1771.72;5072893;28;19916;-78
2022/07/28 03:22:29;;;;;;;;;;;;;;;12.56;100.00;-3418.69;5074095;28;19917;-78
2022/07/28 03:24:56;;;;;;;;;;;;;;;12.55;100.00;-6052.16;5073407;28;19923;-79
2022/07/28 03:27:24;;;;;;;;;;;;;;;12.46;100.00;-8025.97;5074205;28;19917;-78
2022/07/28 03:29:57;;;;;;;;;;;;;;;12.40;100.00;-9340.94;5075917;28;19923;-79
2022/07/28 03:32:23;;;;;;;;;;;;;;;12.40;100.00;-10655.50;5076876;28;19920;-79
2022/07/28 03:34:49;;;;;;;;;;;;;;;12.37;100.00;-11640.97;5095226;28;19995;-79
2022/07/28 03:37:15;;;;;;;;;;;;;;;12.29;100.00;-12297.25;5076407;28;19958;-79
2022/07/28 03:39:46;;;;;;;;;;;;;;;12.29;100.00;-12953.94;5077059;28;19917;-78
2022/07/28 03:42:14;;;;;;;;;;;;;;;12.28;100.00;-13610.47;5076742;28;19916;-79
2022/07/28 03:44:42;;;;;;;;;;;;;;;12.24;100.00;-13938.34;5076740;28;20292;-79
2022/07/28 03:47:07;;;;;;;;;;;;;;;12.24;100.00;-13938.28;5076847;28;19947;-78
2022/07/28 03:49:32;;;;;;;;;;;;;;;12.21;100.00;-14266.28;5076743;28;19923;-78
2022/07/28 03:51:58;;;;;;;;;;;;;;;12.19;100.00;-14594.22;5076453;28;19999;-79
2022/07/28 03:54:24;;;;;;;;;;;;;;;12.19;100.00;-14922.34;5076419;28;20602;-76
2022/07/28 03:56:49;;;;;;;;;;;;;;;12.17;100.00;-14922.09;5076229;28;19916;-79
2022/07/28 03:59:15;;;;;;;;;;;;;;;12.13;100.00;-14921.59;5075790;28;20345;-80
2022/07/28 04:01:40;;;;;;;;;;;;;;;12.13;100.00;-14921.59;5076933;28;20364;-79
2022/07/28 04:04:05;;;;;;;;;;;;;;;12.11;100.00;-15249.41;5074943;28;20454;-80
2022/07/28 04:06:30;;;;;;;;;;;;;;;12.09;100.00;-15577.19;5074895;28;19923;-80
2022/07/28 04:08:56;;;;;;;;;;;;;;;12.07;100.00;-15904.91;5076381;28;20019;-82
2022/07/28 04:11:22;;;;;;;;;;;;;;;12.07;100.00;-16560.69;5076438;28;19919;-81
2022/07/28 04:13:47;;;;;;;;;;;;;;;12.04;100.00;-17216.06;5076098;28;19915;-80
2022/07/28 04:16:12;;;;;;;;;;;;;;;12.05;100.00;-18199.63;5075724;28;19951;-79
2022/07/28 04:18:37;;;;;;;;;;;;;;;12.07;100.00;-18855.47;5076103;28;19946;-81
2022/07/28 04:21:03;;;;;;;;;;;;;;;12.11;100.00;-19183.81;5075861;28;19920;-82
2022/07/28 04:23:32;;;;;;;;;;;;;;;12.12;100.00;-19184.03;5076243;28;20332;-81
2022/07/28 04:25:57;;;;;;;;;;;;;;;12.11;100.00;-19183.91;5075991;28;19920;-82
2022/07/28 04:28:24;;;;;;;;;;;;;;;12.06;100.00;-19182.97;5076334;28;20007;-81
2022/07/28 04:30:49;;;;;;;;;;;;;;;12.10;100.00;-19183.72;5076129;28;19957;-81
2022/07/28 04:33:19;;;;;;;;;;;;;;;12.13;100.00;-19184.31;5075473;28;19916;-81
2022/07/28 04:35:46;;;;;;;;;;;;;;;12.10;100.00;-18856.00;5059308;28;22158;-80
2022/07/28 04:38:13;;;;;;;;;;;;;;;12.09;100.00;-18528.00;5075837;28;19920;-82
2022/07/28 04:40:39;;;;;;;;;;;;;;;12.08;100.00;-18855.56;5075944;28;20015;-82
2022/07/28 04:43:11;;;;;;;;;;;;;;;12.10;100.00;-19511.41;5075625;28;20011;-81
2022/07/28 04:45:37;;;;;;;;;;;;;;;12.09;100.00;-19511.13;5074822;28;19916;-81
2022/07/28 04:48:02;;;;;;;;;;;;;;;12.18;100.00;-19512.91;5075033;28;19938;-81
2022/07/28 04:50:28;;;;;;;;;;;;;;;12.20;100.00;-18857.88;5075835;28;19916;-82
2022/07/28 04:52:57;;;;;;;;;;;;;;;12.19;100.00;-18529.81;5075923;28;19966;-79
2022/07/28 04:55:23;;;;;;;;;;;;;;;12.24;100.00;-17874.91;5094014;28;19920;-82
2022/07/28 04:57:48;;;;;;;;;;;;;;;12.32;100.00;-16892.38;5075871;28;19935;-80
2022/07/28 05:00:14;;;;;;;;;;;;;;;12.54;100.00;-16239.38;5075632;28;20696;-82
2022/07/28 05:02:43;;;;;;;;;;;;;;;12.66;100.00;-13614.22;5075369;28;20420;-79
2022/07/28 05:05:09;;;;;;;;;;;;;;;12.70;100.00;-11971.81;5075464;28;20372;-80
2022/07/28 05:07:35;;;;;;;;;;;;;;;12.75;100.00;-9999.69;5075562;28;20010;-81
2022/07/28 05:10:01;;;;;;;;;;;;;;;12.77;100.00;-8355.22;5075617;28;19919;-81
2022/07/28 05:12:26;;;;;;;;;;;;;;;12.75;100.00;-7039.09;5075969;28;20012;-81
2022/07/28 05:14:53;;;;;;;;;;;;;;;12.71;100.00;-5722.66;5075334;28;19912;-82
2022/07/28 05:17:18;;;;;;;;;;;;;;;12.80;100.00;-5722.41;5076040;28;19916;-81
2022/07/28 05:19:43;;;;;;;;;;;;;;;12.90;100.00;-5063.53;5075852;28;20014;-83
2022/07/28 05:22:08;;;;;;;;;;;;;;;12.92;100.00;-4404.72;5075123;28;19963;-81
2022/07/28 05:24:38;;;;;;;;;;;;;;;12.99;100.00;-4074.94;5075760;28;19942;-82
2022/07/28 05:27:03;;;;;;;;;;;;;;;13.08;100.00;-3415.41;5075503;28;19966;-80
2022/07/28 05:29:28;;;;;;;;;;;;;;;12.96;100.00;-1438.69;5058452;28;19925;-82
2022/07/28 05:31:54;;;;;;;;;;;;;;;13.01;100.00;-2427.16;5075202;28;19920;-81
2022/07/28 05:34:30;;;;;;;;;;;;;;;12.93;100.00;-1109.28;5075764;28;19969;-80
2022/07/28 05:36:55;;;;;;;;;;;;;;;13.07;100.00;-1107.88;5093285;28;20006;-79
2022/07/28 05:39:20;;;;;;;;;;;;;;;13.08;100.00;211.50;5075778;28;19966;-80
2022/07/28 05:41:45;;;;;;;;;;;;;;;13.20;100.00;542.94;5058001;28;19923;-80
2022/07/28 05:44:11;;;;;;;;;;;;;;;13.27;100.00;213.81;5063477;28;19921;-80
2022/07/28 05:46:36;;;;;;;;;;;;;;;13.35;100.00;544.78;5086291;28;19916;-79
2022/07/28 05:49:02;;;;;;;;;;;;;;;13.36;100.00;2195.50;5090981;28;19961;-79
2022/07/28 05:51:27;;;;;;;;;;;;;;;13.33;100.00;3846.25;5054946;28;20417;-78
2022/07/28 05:53:52;;;;;;;;;;;;;;;13.58;100.00;4181.22;5054896;28;20392;-78
2022/07/28 05:56:18;;;;;;;;;;;;;;;13.77;100.00;7161.06;5054215;28;20023;-79
2022/07/28 05:58:44;;;;;;;;;;;;;;;13.94;100.00;12463.31;5053906;28;19920;-78
2022/07/28 06:01:09;;;;;;;;;;;;;;;14.18;100.00;17114.72;5052597;28;19917;-80
2022/07/28 06:03:36;;;;;;;;;;;;;;;14.13;100.00;22094.16;5054102;28;19924;-80
2022/07/28 06:06:04;;;;;;;;;;;;;;;13.98;100.00;25078.25;5071635;28;20597;-77
2022/07/28 06:08:31;;;;;;;;;;;;;;;14.00;100.00;25411.81;5052799;28;19917;-79
2022/07/28 06:11:10;;;;;;;;;;;;;;;13.91;100.00;26071.97;5054442;28;19921;-79
2022/07/28 06:13:45;;;;;;;;;;;;;;;14.09;100.00;25416.13;5054710;28;19988;-78
2022/07/28 06:16:10;;;;;;;;;;;;;;;14.30;100.00;27423.94;5054276;28;20003;-78
2022/07/28 06:18:36;;;;;;;;;;;;;;;14.27;100.00;28087.94;5051959;28;19959;-79
2022/07/28 06:21:01;;;;;;;;;;;;;;;14.39;100.00;29426.31;5049718;28;19921;-79
2022/07/28 06:23:45;;;;;;;;;;;;;;;14.33;100.00;30089.41;5055673;28;19920;-80
2022/07/28 06:26:11;;;;;;;;;;;;;;;14.53;100.00;30767.53;5037660;28;20358;-78
2022/07/28 06:28:36;;;;;;;;;;;;;;;14.47;100.00;32763.88;5037702;28;19956;-78
2022/07/28 06:31:01;;;;;;;;;;;;;;;14.51;100.00;33099.91;5053380;28;19928;-79
2022/07/28 06:33:27;;;;;;;;;;;;;;;14.65;100.00;32108.16;5072085;28;19958;-79
2022/07/28 06:35:53;;;;;;;;;;;;;;;14.55;100.00;36771.94;5087238;28;19927;-78
2022/07/28 06:38:19;;;;;;;;;;;;;;;14.45;100.00;40103.19;5093367;28;19998;-78
2022/07/28 06:40:44;;;;;;;;;;;;;;;14.67;100.00;40119.97;5092406;28;20363;-79
2022/07/28 06:43:13;;;;;;;;;;;;;;;14.84;100.00;42472.97;5093634;28;20403;-80
2022/07/28 06:45:39;;;;;;;;;;;;;;;15.16;100.00;42498.31;5095039;28;20033;-79
2022/07/28 06:48:06;;;;;;;;;;;;;;;15.08;100.00;49188.94;5094639;28;19920;-75
2022/07/28 06:50:32;;;;;;;;;;;;;;;15.11;100.00;48856.16;5094941;28;20330;-77
2022/07/28 06:52:58;;;;;;;;;;;;;;;15.31;100.00;53233.63;5094497;28;19916;-78
2022/07/28 06:55:23;;;;;;;;;;;;;;;15.46;100.00;59630.94;5094633;28;19965;-78
2022/07/28 06:57:49;;;;;;;;;;;;;;;15.68;100.00;64028.38;5094648;28;19916;-77
2022/07/28 07:00:14;;;;;;;;;;;;;;;15.40;100.00;77481.03;5094054;28;20343;-78
2022/07/28 07:02:41;;;;;;;;;;;;;;;15.20;100.00;93349.38;5093742;28;20010;-77
2022/07/28 07:05:07;;;;;;;;;;;;;;;15.35;100.00;108316.56;5094011;28;19916;-78
2022/07/28 07:07:32;;;;;;;;;;;;;;;15.62;100.00;142794.97;5077153;28;19956;-78
2022/07/28 07:09:58;;;;;;;;;;;;;;;15.74;100.00;146692.97;5094072;28;19965;-78
2022/07/28 07:12:23;;;;;;;;;;;;;;;15.75;100.00;146696.78;5077143;28;19930;-76
2022/07/28 07:14:48;;;;;;;;;;;;;;;15.75;100.00;146695.47;5093252;28;19951;-76
2022/07/28 07:17:14;;;;;;;;;;;;;;;16.66;100.00;146921.63;5093929;28;19920;-77
2022/07/28 07:19:39;;;;;;;;;;;;;;;17.08;100.00;147026.44;5093980;28;20014;-77
2022/07/28 07:22:04;;;;;;;;;;;;;;;17.62;100.00;147160.69;5092857;28;20365;-78
2022/07/28 07:24:31;;;;;;;;;;;;;;;18.48;100.00;147375.56;5094036;28;19917;-78
2022/07/28 07:26:56;;;;;;;;;;;;;;;18.58;100.00;147399.94;5093323;28;19919;-76
2022/07/28 07:29:22;;;;;;;;;;;;;;;18.20;100.00;147305.22;5093066;28;19920;-77
2022/07/28 07:31:47;;;;;;;;;;;;;;;17.94;100.00;147241.31;5092188;28;19945;-77
2022/07/28 07:34:14;;;;;;;;;;;;;;;18.50;100.00;147379.41;5092621;28;20347;-77
2022/07/28 07:36:40;;;;;;;;;;;;;;;18.84;100.00;147463.88;5094698;28;19916;-77
2022/07/28 07:39:05;;;;;;;;;;;;;;;18.59;100.00;147402.44;5077183;28;19920;-79
2022/07/28 07:41:30;;;;;;;;;;;;;;;18.83;100.00;147462.63;5075231;28;19920;-77
2022/07/28 07:43:56;;;;;;;;;;;;;;;18.55;100.00;147392.25;5091504;28;19916;-78
2022/07/28 07:46:21;;;;;;;;;;;;;;;18.53;100.00;147385.84;5093613;28;19970;-78
2022/07/28 07:48:46;;;;;;;;;;;;;;;18.44;100.00;147365.38;5094080;28;19916;-79
2022/07/28 07:51:11;;;;;;;;;;;;;;;19.07;100.00;147520.25;5092784;28;19927;-80
2022/07/28 07:53:37;;;;;;;;;;;;;;;19.04;100.00;147512.56;5092584;28;20356;-81
2022/07/28 07:56:02;;;;;;;;;;;;;;;19.27;100.00;147570.19;5091720;28;20483;-80
2022/07/28 07:58:27;;;;;;;;;;;;;;;18.99;100.00;147502.31;5091352;28;19919;-80
2022/07/28 08:00:53;;;;;;;;;;;;;;;18.73;100.00;147435.72;5093015;28;19924;-80
2022/07/28 08:03:22;;;;;;;;;;;;;;;19.51;100.00;147631.63;5092712;28;20506;-80
2022/07/28 08:05:48;;;;;;;;;;;;;;;19.65;100.00;147664.91;5093017;28;19924;-80
2022/07/28 08:08:13;;;;;;;;;;;;;;;20.26;100.00;147817.38;5092683;28;20299;-78
2022/07/28 08:10:38;;;;;;;;;;;;;;;19.51;100.00;147630.31;5091738;28;19934;-78
2022/07/28 08:13:05;;;;;;;;;;;;;;;19.80;100.00;147703.34;5090421;28;20299;-76
2022/07/28 08:15:30;;;;;;;;;;;;;;;19.53;100.00;147635.47;5092299;28;19977;-76
2022/07/28 08:17:55;;;;;;;;;;;;;;;19.26;100.00;147568.88;5092039;28;19924;-78
2022/07/28 08:20:21;;;;;;;;;;;;;;;19.63;100.00;147661.06;5091753;28;19958;-77
2022/07/28 08:22:50;;;;;;;;;;;;;;;19.15;100.00;147540.72;5092581;28;19916;-78
2022/07/28 08:25:15;;;;;;;;;;;;;;;19.41;100.00;147604.75;5091440;28;19966;-77
2022/07/28 08:27:41;;;;;;;;;;;;;;;18.87;100.00;147471.59;5092294;28;19916;-80
2022/07/28 08:30:06;;;;;;;;;;;;;;;19.25;100.00;147566.34;5090808;28;19934;-76
2022/07/28 08:32:34;;;;;;;;;;;;;;;19.19;100.00;147552.25;5091605;28;19916;-76
2022/07/28 08:34:59;;;;;;;;;;;;;;;19.25;100.00;147566.34;5092003;28;19916;-75
2022/07/28 08:37:24;;;;;;;;;;;;;;;19.17;100.00;147545.81;5092161;28;19919;-77
2022/07/28 08:39:49;;;;;;;;;;;;;;;18.83;100.00;147462.63;5091860;28;20392;-78
2022/07/28 08:42:24;;;;;;;;;;;;;;;19.26;100.00;147568.88;5091606;28;19935;-76
2022/07/28 08:44:53;;;;;;;;;;;;;;;19.55;100.00;147640.56;5092113;28;19944;-79
2022/07/28 08:47:19;;;;;;;;;;;;;;;20.00;100.00;147752.03;5091615;28;19951;-78
2022/07/28 08:49:46;;;;;;;;;;;;;;;20.50;100.00;147877.56;5092730;28;19916;-77
2022/07/28 08:52:12;;;;;;;;;;;;;;;20.20;100.00;147802.00;5091843;28;19916;-78
2022/07/28 08:54:42;;;;;;;;;;;;;;;19.36;100.00;147594.50;5091793;28;19923;-80
2022/07/28 08:57:10;;;;;;;;;;;;;;;19.44;100.00;147612.44;5091592;28;19916;-75
2022/07/28 08:59:35;;;;;;;;;;;;;;;19.89;100.00;147725.16;5091981;28;19916;-80
2022/07/28 09:02:01;;;;;;;;;;;;;;;19.31;100.00;147580.38;5091379;28;20019;-77
2022/07/28 09:04:28;;;;;;;;;;;;;;;19.38;100.00;147599.59;5092175;28;19916;-78
2022/07/28 09:06:54;;;;;;;;;;;;;;;19.30;100.00;147577.84;5091554;28;19920;-77
2022/07/28 09:09:20;;;;;;;;;;;;;;;19.12;100.00;147533.03;5091823;28;19962;-77
2022/07/28 09:11:45;;;;;;;;;;;;;;;19.36;100.00;147593.22;5092023;28;20342;-80
2022/07/28 09:14:17;;;;;;;;;;;;;;;19.86;100.00;147718.72;5091724;28;19916;-79
2022/07/28 09:16:43;;;;;;;;;;;;;;;19.40;100.00;147602.16;5091775;28;19916;-78
2022/07/28 09:19:08;;;;;;;;;;;;;;;19.24;100.00;147563.75;5091695;28;19916;-77
2022/07/28 09:21:34;;;;;;;;;;;;;;;18.95;100.00;147492.06;5091941;28;19921;-80
2022/07/28 09:24:02;;;;;;;;;;;;;;;19.02;100.00;147510.00;5092562;28;19916;-78
2022/07/28 09:26:27;;;;;;;;;;;;;;;18.66;100.00;147419.13;5091654;28;19923;-80
2022/07/28 09:28:53;;;;;;;;;;;;;;;18.70;100.00;147429.31;5092270;28;20003;-78
2022/07/28 09:31:20;;;;;;;;;;;;;;;19.04;100.00;147513.84;5092029;28;19934;-78
2022/07/28 09:34:04;;;;;;;;;;;;;;;19.00;100.00;147504.91;5091964;28;19916;-76
2022/07/28 09:36:37;;;;;;;;;;;;;;;19.19;100.00;147550.97;5091730;28;19919;-76
2022/07/28 09:39:02;;;;;;;;;;;;;;;19.57;100.00;147644.44;5092241;28;20376;-79
2022/07/28 09:41:27;;;;;;;;;;;;;;;19.46;100.00;147617.53;5091904;28;19918;-78
2022/07/28 09:43:54;;;;;;;;;;;;;;;19.39;100.00;147600.91;5091129;28;20177;-80
2022/07/28 09:46:22;;;;;;;;;;;;;;;19.16;100.00;147543.28;5090702;28;20393;-77
2022/07/28 09:48:55;;;;;;;;;;;;;;;19.35;100.00;147590.66;5091930;28;19961;-80
2022/07/28 09:51:25;;;;;;;;;;;;;;;19.64;100.00;147662.31;5091385;28;19969;-78
2022/07/28 09:54:04;;;;;;;;;;;;;;;19.78;100.00;147696.94;5092958;28;20272;-79
2022/07/28 09:56:30;;;;;;;;;;;;;;;19.99;100.00;147749.47;5095795;28;19916;-79
2022/07/28 09:58:56;;;;;;;;;;;;;;;19.65;100.00;147664.91;5095765;28;20620;-79
2022/07/28 10:01:22;;;;;;;;;;;;;;;19.43;100.00;147609.84;5095844;28;20002;-81
2022/07/28 10:03:57;;;;;;;;;;;;;;;19.46;100.00;147617.53;5095237;28;19999;-81
2022/07/28 10:06:24;;;;;;;;;;;;;;;19.62;100.00;147658.47;5096118;28;19916;-81
2022/07/28 10:08:50;;;;;;;;;;;;;;;19.70;100.00;147677.69;5095558;28;20382;-80
2022/07/28 10:11:23;;;;;;;;;;;;;;;19.63;100.00;147661.06;5095672;28;20240;-81
2022/07/28 10:13:58;;;;;;;;;;;;;;;19.50;100.00;147629.06;5093013;28;19912;-81
2022/07/28 10:16:24;;;;;;;;;;;;;;;19.93;100.00;147735.38;5095521;28;19982;-80
2022/07/28 10:18:50;;;;;;;;;;;;;;;19.82;100.00;147707.19;5094634;28;19919;-78
2022/07/28 10:21:17;;;;;;;;;;;;;;;19.29;100.00;147576.56;5094972;28;19917;-79
2022/07/28 10:23:48;;;;;;;;;;;;;;;19.57;100.00;147645.69;5094985;28;19963;-81
2022/07/28 10:26:14;;;;;;;;;;;;;;;19.83;100.00;147709.78;5094645;28;20537;-78
2022/07/28 10:28:43;;;;;;;;;;;;;;;19.67;100.00;147671.31;5095045;28;19916;-79
2022/07/28 10:31:09;;;;;;;;;;;;;;;19.77;100.00;147694.41;5094580;28;20391;-80
2022/07/28 10:33:45;;;;;;;;;;;;;;;19.64;100.00;147663.63;5095896;28;19920;-82
2022/07/28 10:36:12;;;;;;;;;;;;;;;20.13;100.00;147784.06;5094763;28;19958;-81
2022/07/28 10:38:38;;;;;;;;;;;;;;;20.65;100.00;147914.78;5095040;28;19916;-81
2022/07/28 10:41:06;;;;;;;;;;;;;;;20.36;100.00;147842.97;5094630;28;19916;-78
2022/07/28 10:43:32;;;;;;;;;;;;;;;20.29;100.00;147823.75;5092921;28;19924;-79
2022/07/28 10:45:58;;;;;;;;;;;;;;;20.50;100.00;147877.56;5091890;28;19916;-78
2022/07/28 10:48:24;;;;;;;;;;;;;;;20.79;100.00;147949.38;5094251;28;19964;-80
2022/07/28 10:50:50;;;;;;;;;;;;;;;20.21;100.00;147804.53;5093726;28;19916;-78
2022/07/28 10:53:27;;;;;;;;;;;;;;;20.44;100.00;147863.44;5093325;28;19916;-78
2022/07/28 10:55:58;;;;;;;;;;;;;;;20.48;100.00;147872.44;5090908;28;20352;-79
2022/07/28 10:58:42;;;;;;;;;;;;;;;20.14;100.00;147787.91;5094284;28;19963;-78
2022/07/28 11:01:07;;;;;;;;;;;;;;;20.25;100.00;147814.78;5093587;28;19958;-77
2022/07/28 11:03:41;;;;;;;;;;;;;;;20.07;100.00;147769.94;5093953;28;19920;-77
2022/07/28 11:06:25;;;;;;;;;;;;;;;20.44;100.00;147862.19;5092318;28;19924;-79
2022/07/28 11:08:53;;;;;;;;;;;;;;;20.61;100.00;147904.47;5093415;28;19923;-77
2022/07/28 11:11:43;;;;;;;;;;;;;;;20.81;100.00;147954.50;5095182;28;19920;-78
2022/07/28 11:14:36;;;;;;;;;;;;;;;20.50;100.00;147876.28;5093124;28;19916;-78
2022/07/28 11:17:05;;;;;;;;;;;;;;;20.65;100.00;147914.78;5093479;28;20391;-79
2022/07/28 11:19:31;;;;;;;;;;;;;;;21.01;100.00;148004.47;5093549;28;19959;-77
2022/07/28 11:22:20;;;;;;;;;;;;;;;21.39;100.00;148098.03;5094191;28;19930;-76
2022/07/28 11:25:01;;;;;;;;;;;;;;;21.05;100.00;148014.75;5094053;28;19923;-78
2022/07/28 11:27:53;;;;;;;;;;;;;;;20.84;100.00;147962.19;5094638;28;19923;-80
2022/07/28 11:30:18;;;;;;;;;;;;;;;21.00;100.00;148001.91;5093368;28;19920;-79
2022/07/28 11:32:56;;;;;;;;;;;;;;;20.78;100.00;147946.81;5093817;28;19916;-80
2022/07/28 11:35:21;;;;;;;;;;;;;;;20.77;100.00;147945.53;5093539;28;19965;-80
2022/07/28 11:38:02;;;;;;;;;;;;;;;20.74;100.00;147936.53;5093817;28;20011;-81
2022/07/28 11:40:30;;;;;;;;;;;;;;;20.65;100.00;147914.78;5092954;28;19984;-78
2022/07/28 11:43:15;;;;;;;;;;;;;;;20.84;100.00;147962.19;5091440;28;19916;-80
2022/07/28 11:45:40;;;;;;;;;;;;;;;21.09;100.00;148024.97;5093689;28;19916;-80
2022/07/28 11:48:16;;;;;;;;;;;;;;;21.08;100.00;148022.38;5093395;28;19947;-78
2022/07/28 11:50:42;;;;;;;;;;;;;;;21.03;100.00;148009.59;5092725;28;19920;-77
2022/07/28 11:53:08;;;;;;;;;;;;;;;20.75;100.00;147940.38;5092805;28;20014;-76
2022/07/28 11:55:34;;;;;;;;;;;;;;;20.64;100.00;147912.16;5092359;28;19943;-77
2022/07/28 11:58:01;;;;;;;;;;;;;;;20.82;100.00;147957.06;5092460;28;20360;-80
2022/07/28 12:00:27;;;;;;;;;;;;;;;21.08;100.00;148022.38;5092834;28;19982;-79
2022/07/28 12:02:53;;;;;;;;;;;;;;;21.43;100.00;148108.31;5092458;28;20715;-78
2022/07/28 12:05:20;;;;;;;;;;;;;;;21.51;100.00;148130.13;5092372;28;19939;-78
2022/07/28 12:07:48;;;;;;;;;;;;;;;21.91;100.00;148228.88;5092889;28;19912;-79
2022/07/28 12:10:26;;;;;;;;;;;;;;;21.55;100.00;148137.81;5092098;28;19919;-79
2022/07/28 12:12:58;;;;;;;;;;;;;;;21.50;100.00;148127.59;5092353;28;20360;-78
2022/07/28 12:15:24;;;;;;;;;;;;;;;21.11;100.00;148028.81;5092357;28;19927;-80
2022/07/28 12:17:50;;;;;;;;;;;;;;;21.38;100.00;148095.47;5092270;28;19912;-78
2022/07/28 12:20:17;;;;;;;;;;;;;;;21.55;100.00;148137.81;5093606;28;19923;-78
2022/07/28 12:22:56;;;;;;;;;;;;;;;21.74;100.00;148185.28;5094781;28;20385;-79
2022/07/28 12:25:21;;;;;;;;;;;;;;;21.59;100.00;148148.09;5092128;28;19924;-79
2022/07/28 12:27:47;;;;;;;;;;;;;;;21.69;100.00;148173.75;5091823;28;19916;-79
2022/07/28 12:30:19;;;;;;;;;;;;;;;21.46;100.00;148117.25;5093383;28;20402;-78
2022/07/28 12:32:45;;;;;;;;;;;;;;;21.57;100.00;148144.25;5090798;28;19981;-80
2022/07/28 12:35:10;;;;;;;;;;;;;;;21.55;100.00;148139.13;5092052;28;19947;-80
2022/07/28 12:37:35;;;;;;;;;;;;;;;21.38;100.00;148095.47;5091540;28;20277;-78